Las Vegas, NV

7:28 AM PST on January 22, 2017 (GMT -0800)
McCarran International | | Change Station
Active Advisory: Wind Advisory

Elev 2178 ft 36.08 °N, 115.15 °W | Updated 32 minutes ago

Rain
Rain
45 °F
Feels Like 42 °F
N
6
Wind Variable Wind from East

Today
High -- | Low -- °F
--% Chance of Precip.
Yesterday
High -- | Low -- °F
Precip. -- in
Pressure 30.04 in
Visibility 10.0 miles
Clouds Overcast 4200 ft
Windchill 42 °F
Dew Point 37 °F
Humidity 74%
Rainfall 0.01 in
Snow Depth Not available.
6:47 AM 4:57 PM
Waning Crescent, 25% visible
METAR KLAS 221456Z 08005KT 10SM -RA OVC042 07/03 A3004 RMK AO2 RAB17 SLP173 P0000 60001 T00720028 51012
Pressure 30.04 in
Visibility 10.0 miles
Clouds Overcast 4200 ft
Windchill 42 °F
Dew Point 37 °F
Humidity 74%
Rainfall 0.01 in
Snow Depth Not available.
6:47 AM 4:57 PM
Waning Crescent, 25% visible
METAR KLAS 221456Z 08005KT 10SM -RA OVC042 07/03 A3004 RMK AO2 RAB17 SLP173 P0000 60001 T00720028 51012

Get Your Daily Forecast Email!

Thanks for signing up!

Be on the lookout for a verification email in your inbox.

You'll start receiving the daily forecast at 8 AM.

×

10-Day Weather Forecast

Almanac

Astronomy

Jan. 22, 2017 Rise Set
Actual Time
Civil Twilight
Nautical Twilight
Astronomical Twilight
Moon
Length of Visible Light
Length of Day
Tomorrow will be .
, % of the Moon is Illuminated

Today's Extremes

State Highs State Lows

Community

WunderPhotos

Upload Photos

1,962,540 photos uploaded!

WunderBlog® & News

Nearby

Air Quality

  Air Quality AQ Index Pollutant
Not available.

Snow Depth

Station Depth Elevation

Earthquake Activity

City Distance Mag. Time & Date
Minimum magnitude displayed is 2.5.

Coastal Water Temperatures

Place Temperature

Stations

Nearby Weather Stations

Station Location Temp. Windchill Dew Point Humidity Wind Precip. Elev Updated Type
                   

Watches & Warnings

Wind Advisory
Issued: 3:54 AM MST Jan. 22, 2017 – National Weather Service

... Wind Advisory remains in effect from 7 am PST /8 am MST/ this
morning to 4 PM PST /5 PM MST/ Monday...

* timing... winds are expected to increase today... peak
tonight... then diminish Monday afternoon. Portions of the Las
Vegas Valley may not see strong winds until tonight.

* Winds... south to southwest 25 to 35 mph with gusts 35 to 45 mph.

* Impacts... strong winds will create difficult driving
conditions... especially for high-profile vehicles. Loose or
unsecured objects and temporary structures may be blown away
or damaged. Strong winds can also create hazardous boating
conditions due to high wave activity.

Precautionary/preparedness actions...

Check Road conditions before departing and be prepared for sudden
strong Crosswinds. Use extreme caution on the water and be aware
of wave activity. Secure any loose objects or temporary
structures.